1958 Tropical Low NOT_NAMED (1958015S15122)


IBTrACS version v04r00. Visit IBTrACS website for data access.
Please direct all questions to the IBTrACS Q and A forum

Storm track - Intensity - Wind Radii - Intensity Data - Source Data - All data

Summary Information

Storm ID 1958015S15122
Start Jan 14 23Z
Landfall Jan 20 18Z
Max Intensity 990 mb (Jan 20 01Z)
End Jan 22 01Z
ATCF IDs ,SH081958
Track status Best track data.

Storm track plot

Map of storm track

Intensity plots

Map of storm track

Radial wind information

No radial wind information for this storm


Position and Intensity Table

BASIN ISO_TIME_________ NATURE LAT LON WMO PRES BOM PRES
degrees north degrees east mb mb
SI 1958-01-14 23:00:00 NR -14.50 121.80
SI 1958-01-15 00:00:00 TS -14.58 121.72
SI 03:00:00 TS -14.79 121.52
SI 05:00:00 TS -14.92 121.39
SI 06:00:00 TS -14.99 121.32
SI 09:00:00 TS -15.19 121.12
SI 11:00:00 TS -15.32 120.98
SI 12:00:00 TS -15.39 120.91
SI 15:00:00 TS -15.60 120.70
SI 17:00:00 TS -15.73 120.56
SI 18:00:00 TS -15.78 120.48
SI 21:00:00 TS -15.91 120.23
SI 23:00:00 TS -15.98 120.08
SI 1958-01-16 00:00:00 TS -16.01 120.02
SI 01:00:00 TS -15.91 120.08 1002 1002
SI 03:00:00 TS -15.85 120.10
SI 05:00:00 TS -15.82 120.12
SI 06:00:00 TS -15.76 120.16
SI 09:00:00 TS -15.83 120.05
SI 11:00:00 TS -15.88 119.97
SI 12:00:00 TS -15.90 119.92
SI 15:00:00 TS -16.00 119.74
SI 17:00:00 TS -16.07 119.62
SI 18:00:00 TS -16.10 119.56
SI 21:00:00 TS -16.18 119.43
SI 23:00:00 TS -16.22 119.34
SI 1958-01-17 00:00:00 TS -16.19 119.36
SI 01:00:00 TS -16.16 119.37 1000 1000
SI 03:00:00 TS -16.18 119.33
SI 06:00:00 TS -16.23 119.23
SI 09:00:00 TS -16.30 119.09
SI 11:00:00 TS -16.34 119.00
SI 12:00:00 TS -16.36 118.95
SI 15:00:00 TS -16.42 118.79
SI 18:00:00 TS -16.48 118.62
SI 21:00:00 TS -16.53 118.47
SI 23:00:00 TS -16.56 118.37
SI 1958-01-18 00:00:00 TS -16.58 118.32
SI 01:00:00 TS -16.59 118.27 995 995
SI 03:00:00 TS -16.62 118.16
SI 06:00:00 TS -16.66 117.98
SI 09:00:00 TS -16.72 117.81
SI 11:00:00 TS -16.77 117.70
SI 12:00:00 TS -16.80 117.64
SI 15:00:00 TS -16.89 117.47
SI 18:00:00 TS -17.00 117.31
SI 21:00:00 TS -17.12 117.15
SI 23:00:00 TS -17.20 117.05
SI 1958-01-19 00:00:00 TS -17.24 117.00
SI 01:00:00 TS -17.29 116.95 995 995
SI 03:00:00 TS -17.37 116.84
SI 06:00:00 TS -17.51 116.69
SI 09:00:00 TS -17.66 116.55
SI 11:00:00 TS -17.76 116.46
SI 12:00:00 TS -17.82 116.42
SI 15:00:00 TS -17.98 116.32
SI 18:00:00 TS -18.16 116.24
SI 21:00:00 TS -18.35 116.20
SI 23:00:00 TS -18.50 116.19
SI 1958-01-20 00:00:00 TS -18.59 116.18
SI 01:00:00 TS -18.69 116.17 990 990
SI 03:00:00 TS -18.90 116.14
SI 06:00:00 TS -19.27 116.11
SI 09:00:00 TS -19.66 116.11
SI 11:00:00 TS -19.93 116.13
SI 12:00:00 TS -20.07 116.16
SI 15:00:00 TS -20.51 116.27
SI 16:00:00 TS -20.66 116.32 990 990
SI 18:00:00 TS -20.95 116.43 990
SI 21:00:00 TS -21.40 116.65 990 990
SI 23:00:00 TS -21.74 116.83 992
SI 1958-01-21 00:00:00 TS -21.91 116.93 993
SI 01:00:00 TS -22.07 117.03 995 995
SI 03:00:00 TS -22.37 117.26
SI 06:00:00 TS -22.80 117.62
SI 09:00:00 TS -23.20 118.01
SI 11:00:00 TS -23.48 118.29
SI 12:00:00 TS -23.62 118.44
SI 15:00:00 TS -24.11 118.95
SI 16:00:00 TS -24.29 119.16 998 998
SI 18:00:00 TS -24.63 119.62 998
SI 21:00:00 TS -25.08 120.40 1000
SI 23:00:00 TS -25.35 120.91 1001
SI 1958-01-22 00:00:00 TS -25.40 121.37 1001
SI 01:00:00 NR -25.50 121.60 1002 1002

Source Information

Agency Information
USA bsh081958.txt
TOKYO
CMA
HKO
NEWDELHI
REUNION
BOM IDCKMSTM0S.csv:Line=2479:unnamed
NADI
WELLINGTON
DS824 s_hem.dat:723:08S
TD9636 cons_worldwide_trop_cyclone_18710101-19891231-006:Line=5090
TD9635
NEUMANN
MLC

All available IBTrACS Data

SEASON BASIN SUBBASIN ISO_TIME_________ NATURE LAT LON WMO PRES WMO AGENCY DIST2LAND LANDFALL IFLAG USA AGENCY USA ATCF_ID USA LAT USA LON USA SSHS BOM LAT BOM LON BOM PRES BOM PRES_METHOD DS824 LAT DS824 LON DS824 STAGE TD9636 LAT TD9636 LON TD9636 STAGE STORM SPEED STORM DIR
Year degrees north degrees east mb km km degrees north degrees east 1 degrees north degrees east mb degrees north degrees east degrees north degrees east kts degrees
1958 SI WA 1958-01-14 23:00:00 NR -14.50 121.80 253 248 __________O___ -1 -14.50 121.80 1 7 222
1958 SI WA 1958-01-15 00:00:00 TS -14.58 121.72 248 235 O________OP___ jtwc_sh SH081958 -14.60 121.70 -1 -14.60 121.70 TC -14.57 121.74 1 6 223
1958 SI WA 03:00:00 TS -14.79 121.52 242 233 P________PP___ SH081958 -14.80 121.50 -1 -14.80 121.50 TC -14.77 121.55 1 6 223
1958 SI WA 05:00:00 TS -14.92 121.39 240 232 P________PP___ SH081958 -14.93 121.37 -1 -14.93 121.37 TC -14.90 121.42 1 6 224
1958 SI WA 06:00:00 TS -14.99 121.32 239 239 O________OP___ jtwc_sh SH081958 -15.00 121.30 -1 -15.00 121.30 TC -14.97 121.35 1 6 224
1958 SI WA 09:00:00 TS -15.19 121.12 239 239 P________PP___ SH081958 -15.20 121.10 -1 -15.20 121.10 TC -15.17 121.15 1 6 225
1958 SI WA 11:00:00 TS -15.32 120.98 239 239 P________PO___ SH081958 -15.33 120.97 -1 -15.33 120.97 TC -15.30 121.00 1 6 225
1958 SI WA 12:00:00 TS -15.39 120.91 239 239 O________OP___ jtwc_sh SH081958 -15.40 120.90 -1 -15.40 120.90 TC -15.37 120.92 1 6 224
1958 SI WA 15:00:00 TS -15.60 120.70 239 239 P________PP___ SH081958 -15.61 120.71 -1 -15.61 120.71 TC -15.56 120.69 1 6 225
1958 SI WA 17:00:00 TS -15.73 120.56 239 239 P________PP___ SH081958 -15.74 120.57 -1 -15.74 120.57 TC -15.69 120.53 1 6 229
1958 SI WA 18:00:00 TS -15.78 120.48 240 240 O________OP___ jtwc_sh SH081958 -15.80 120.50 -1 -15.80 120.50 TC -15.75 120.45 1 5 239
1958 SI WA 21:00:00 TS -15.91 120.23 261 261 P________PP___ SH081958 -15.92 120.23 -1 -15.92 120.23 TC -15.91 120.23 1 5 243
1958 SI WA 23:00:00 TS -15.98 120.08 264 264 P________PO___ SH081958 -15.97 120.07 -1 -15.97 120.07 TC -16.00 120.10 1 5 244
1958 SI WA 1958-01-16 00:00:00 TS -16.01 120.02 274 270 O________OP___ jtwc_sh SH081958 -16.00 120.00 -1 -16.00 120.00 TC -16.04 120.05 1 2 18
1958 SI WA 01:00:00 TS -15.91 120.08 1002 bom 270 270 P_____O__PP___ SH081958 -16.04 119.95 -1 -14.20 121.50 1002 -16.04 119.95 TC -16.07 120.00 1 4 29
1958 SI WA 03:00:00 TS -15.85 120.10 270 270 P_____P__PP___ SH081958 -16.11 119.88 -1 -14.29 121.40 -16.11 119.88 TC -16.13 119.91 1 1 22
1958 SI WA 05:00:00 TS -15.82 120.12 276 267 P_____P__PP___ SH081958 -16.17 119.83 -1 -14.38 121.30 -16.17 119.83 TC -16.18 119.83 1 2 29
1958 SI WA 06:00:00 TS -15.76 120.16 267 267 O_____P__OP___ jtwc_sh SH081958 -16.20 119.80 -1 -14.43 121.25 -16.20 119.80 TC -16.20 119.79 1 1 258
1958 SI WA 09:00:00 TS -15.83 120.05 276 276 P_____P__PP___ SH081958 -16.25 119.71 -1 -14.56 121.09 -16.25 119.71 TC -16.26 119.68 1 3 236
1958 SI WA 11:00:00 TS -15.88 119.97 279 279 P_____P__PO___ SH081958 -16.28 119.64 -1 -14.65 120.99 -16.28 119.64 TC -16.30 119.60 1 3 239
1958 SI WA 12:00:00 TS -15.90 119.92 289 289 O_____P__OP___ jtwc_sh SH081958 -16.30 119.60 -1 -14.69 120.94 -16.30 119.60 TC -16.33 119.55 1 4 239
1958 SI WA 15:00:00 TS -16.00 119.74 303 298 P_____P__PP___ SH081958 -16.40 119.40 -1 -14.82 120.78 -16.40 119.40 TC -16.40 119.40 1 4 240
1958 SI WA 17:00:00 TS -16.07 119.62 307 307 P_____P__PP___ SH081958 -16.47 119.26 -1 -14.90 120.67 -16.47 119.26 TC -16.45 119.29 1 4 240
1958 SI WA 18:00:00 TS -16.10 119.56 307 307 O_____P__OP___ jtwc_sh SH081958 -16.50 119.20 -1 -14.94 120.61 -16.50 119.20 TC -16.48 119.24 1 3 241
1958 SI WA 21:00:00 TS -16.18 119.43 322 322 P_____P__PP___ SH081958 -16.55 119.08 -1 -15.06 120.44 -16.55 119.08 TC -16.55 119.09 1 3 240
1958 SI WA 23:00:00 TS -16.22 119.34 332 322 P_____P__PO___ SH081958 -16.58 119.03 -1 -15.13 120.32 -16.58 119.03 TC -16.60 119.00 1 1 260
1958 SI WA 1958-01-17 00:00:00 TS -16.19 119.36 322 322 O_____P__OP___ jtwc_sh SH081958 -16.60 119.00 -1 -15.17 120.26 -16.60 119.00 TC -16.63 118.96 1 2 0
1958 SI WA 01:00:00 TS -16.16 119.37 1000 bom 322 322 P_____O__PP___ SH081958 -16.63 118.97 -1 -15.20 120.20 1000 -16.63 118.97 TC -16.65 118.92 1 1 282
1958 SI WA 03:00:00 TS -16.18 119.33 332 332 P_____P__PP___ SH081958 -16.70 118.90 -1 -15.27 120.08 -16.70 118.90 TC -16.71 118.86 1 2 245
1958 SI WA 06:00:00 TS -16.23 119.23 342 338 O_____P__OP___ jtwc_sh SH081958 -16.80 118.80 -1 -15.36 119.88 -16.80 118.80 TC -16.78 118.76 1 3 241
1958 SI WA 09:00:00 TS -16.30 119.09 348 348 P_____P__PP___ SH081958 -16.86 118.71 -1 -15.45 119.68 -16.86 118.71 TC -16.86 118.67 1 3 242
1958 SI WA 11:00:00 TS -16.34 119.00 358 355 P_____P__PO___ SH081958 -16.89 118.64 -1 -15.50 119.55 -16.89 118.64 TC -16.90 118.60 1 3 245
1958 SI WA 12:00:00 TS -16.36 118.95 355 355 O_____P__OP___ jtwc_sh SH081958 -16.90 118.60 -1 -15.53 119.48 -16.90 118.60 TC -16.92 118.56 1 3 249
1958 SI WA 15:00:00 TS -16.42 118.79 375 375 P_____P__PP___ SH081958 -16.95 118.45 -1 -15.60 119.28 -16.95 118.45 TC -16.97 118.45 1 3 250
1958 SI WA 18:00:00 TS -16.48 118.62 391 391 O_____P__OP___ jtwc_sh SH081958 -17.00 118.30 -1 -15.67 119.07 -17.00 118.30 TC -17.02 118.32 1 3 250
1958 SI WA 21:00:00 TS -16.53 118.47 402 398 P_____P__PP___ SH081958 -17.05 118.20 -1 -15.73 118.87 -17.05 118.20 TC -17.06 118.19 1 3 250
1958 SI WA 23:00:00 TS -16.56 118.37 398 398 P_____P__PO___ SH081958 -17.08 118.14 -1 -15.76 118.73 -17.08 118.14 TC -17.10 118.10 1 3 251
1958 SI WA 1958-01-18 00:00:00 TS -16.58 118.32 400 400 O_____P__OP___ jtwc_sh SH081958 -17.10 118.10 -1 -15.78 118.67 -17.10 118.10 TC -17.12 118.05 1 3 253
1958 SI WA 01:00:00 TS -16.59 118.27 995 bom 400 400 P_____O__PP___ SH081958 -17.11 118.06 -1 -15.80 118.60 995 -17.11 118.06 TC -17.14 118.01 1 3 255
1958 SI WA 03:00:00 TS -16.62 118.16 402 397 P_____P__PP___ SH081958 -17.14 117.96 -1 -15.82 118.46 -17.14 117.96 TC -17.18 117.91 1 3 256
1958 SI WA 06:00:00 TS -16.66 117.98 397 397 O_____P__OP___ jtwc_sh SH081958 -17.20 117.80 -1 -15.84 118.26 -17.20 117.80 TC -17.24 117.76 1 3 253
1958 SI WA 09:00:00 TS -16.72 117.81 404 397 P_____P__PP___ SH081958 -17.28 117.65 -1 -15.85 118.05 -17.28 117.65 TC -17.33 117.60 1 4 249
1958 SI WA 11:00:00 TS -16.77 117.70 397 397 P_____P__PO___ SH081958 -17.36 117.55 -1 -15.86 117.92 -17.36 117.55 TC -17.40 117.50 1 4 246
1958 SI WA 12:00:00 TS -16.80 117.64 401 395 O_____P__OP___ jtwc_sh SH081958 -17.40 117.50 -1 -15.86 117.85 -17.40 117.50 TC -17.44 117.45 1 4 240
1958 SI WA 15:00:00 TS -16.89 117.47 395 387 P_____P__PP___ SH081958 -17.54 117.35 -1 -15.88 117.66 -17.54 117.35 TC -17.58 117.30 1 4 237
1958 SI WA 18:00:00 TS -17.00 117.31 389 381 O_____P__OP___ jtwc_sh SH081958 -17.70 117.20 -1 -15.92 117.48 -17.70 117.20 TC -17.73 117.15 1 4 234
1958 SI WA 21:00:00 TS -17.12 117.15 381 373 P_____P__PP___ SH081958 -17.85 117.05 -1 -15.98 117.31 -17.85 117.05 TC -17.89 117.00 1 4 231
1958 SI WA 23:00:00 TS -17.20 117.05 373 373 P_____P__PO___ SH081958 -17.95 116.95 -1 -16.03 117.20 -17.95 116.95 TC -18.00 116.90 1 4 229
1958 SI WA 1958-01-19 00:00:00 TS -17.24 117.00 376 365 O_____P__OP___ jtwc_sh SH081958 -18.00 116.90 -1 -16.06 117.15 -18.00 116.90 TC -18.05 116.85 1 4 229
1958 SI WA 01:00:00 TS -17.29 116.95 995 bom 369 358 P_____O__PP___ SH081958 -18.05 116.85 -1 -16.10 117.10 995 -18.05 116.85 TC -18.10 116.79 1 4 229
1958 SI WA 03:00:00 TS -17.37 116.84 357 346 P_____P__PP___ SH081958 -18.15 116.75 -1 -16.17 117.00 -18.15 116.75 TC -18.21 116.68 1 4 227
1958 SI WA 06:00:00 TS -17.51 116.69 346 324 O_____P__OP___ jtwc_sh SH081958 -18.30 116.60 -1 -16.29 116.87 -18.30 116.60 TC -18.36 116.52 1 4 224
1958 SI WA 09:00:00 TS -17.66 116.55 325 313 P_____P__PP___ SH081958 -18.45 116.44 -1 -16.44 116.75 -18.45 116.44 TC -18.51 116.38 1 4 221
1958 SI WA 11:00:00 TS -17.76 116.46 313 313 P_____P__PO___ SH081958 -18.55 116.34 -1 -16.55 116.67 -18.55 116.34 TC -18.60 116.30 1 4 218
1958 SI WA 12:00:00 TS -17.82 116.42 314 293 O_____P__OP___ jtwc_sh SH081958 -18.60 116.30 -1 -16.61 116.64 -18.60 116.30 TC -18.64 116.27 1 4 212
1958 SI WA 15:00:00 TS -17.98 116.32 293 282 P_____P__PP___ SH081958 -18.75 116.18 -1 -16.82 116.54 -18.75 116.18 TC -18.73 116.19 1 4 207
1958 SI WA 18:00:00 TS -18.16 116.24 273 262 O_____P__OP___ jtwc_sh SH081958 -18.90 116.10 -1 -17.07 116.46 -18.90 116.10 TC -18.83 116.13 1 4 196
1958 SI WA 21:00:00 TS -18.35 116.20 251 240 P_____P__PP___ SH081958 -19.03 116.08 -1 -17.36 116.38 -19.03 116.08 TC -18.97 116.11 1 4 190
1958 SI WA 23:00:00 TS -18.50 116.19 240 229 P_____P__PO___ SH081958 -19.13 116.09 -1 -17.57 116.34 -19.13 116.09 TC -19.10 116.10 1 5 0
1958 SI WA 1958-01-20 00:00:00 TS -18.59 116.18 229 218 O_____P__OP___ jtwc_sh SH081958 -19.20 116.10 -1 -17.68 116.32 -19.20 116.10 TC -19.18 116.09 1 6 182
1958 SI WA 01:00:00 TS -18.69 116.17 990 bom 218 200 P_____O__PP___ SH081958 -19.28 116.10 -1 -17.80 116.30 990 -19.28 116.10 TC -19.26 116.08 1 6 186
1958 SI WA 03:00:00 TS -18.90 116.14 200 168 P_____P__PP___ SH081958 -19.47 116.09 -1 -18.05 116.23 -19.47 116.09 TC -19.45 116.07 1 7 185
1958 SI WA 06:00:00 TS -19.27 116.11 158 128 O_____P__OP___ jtwc_sh SH081958 -19.80 116.10 -1 -18.45 116.15 -19.80 116.10 TC -19.78 116.08 1 8 183
1958 SI WA 09:00:00 TS -19.66 116.11 118 100 P_____P__PP___ SH081958 -20.13 116.12 -1 -18.90 116.08 -20.13 116.12 TC -20.15 116.14 1 8 0
1958 SI WA 11:00:00 TS -19.93 116.13 100 84 P_____P__PO___ SH081958 -20.37 116.16 -1 -19.20 116.06 -20.37 116.16 TC -20.40 116.20 1 8 175
1958 SI WA 12:00:00 TS -20.07 116.16 76 38 O_____P__OP___ jtwc_sh SH081958 -20.50 116.20 -1 -19.36 116.05 -20.50 116.20 TC -20.53 116.24 1 9 168
1958 SI WA 15:00:00 TS -20.51 116.27 38 30 P_____P__PP___ SH081958 -20.89 116.37 -1 -19.84 116.08 -20.89 116.37 TC -20.92 116.39 1 9 165
1958 SI WA 16:00:00 TS -20.66 116.32 990 bom 22 0 P_____O__PP___ SH081958 -21.03 116.44 -1 -20.00 116.10 990 4 -21.03 116.44 TC -21.06 116.45 1 9 161
1958 SI WA 18:00:00 TS -20.95 116.43 0 0 O_____P__OP___ jtwc_sh SH081958 -21.30 116.60 -1 -20.27 116.14 990 -21.30 116.60 TC -21.33 116.59 1 10 158
1958 SI WA 21:00:00 TS -21.40 116.65 990 bom 0 0 P_____O__PP___ SH081958 -21.71 116.84 -1 -20.80 116.30 990 -21.71 116.84 TC -21.74 116.83 1 11 155
1958 SI WA 23:00:00 TS -21.74 116.83 0 0 P_____P__PO___ SH081958 -21.97 117.01 -1 -21.33 116.52 992 -21.97 117.01 TC -22.00 117.00 1 11 152
1958 SI WA 1958-01-21 00:00:00 TS -21.91 116.93 0 0 O_____P__OP___ jtwc_sh SH081958 -22.10 117.10 -1 -21.62 116.65 993 -22.10 117.10 TC -22.11 117.08 1 11 150
1958 SI WA 01:00:00 TS -22.07 117.03 995 bom 0 0 P_____O__PP___ SH081958 -22.22 117.19 -1 -21.90 116.80 995 -22.22 117.19 TC -22.22 117.17 1 11 147
1958 SI WA 03:00:00 TS -22.37 117.26 0 0 P_____P__PP___ SH081958 -22.46 117.39 -1 -22.38 117.08 -22.46 117.39 TC -22.43 117.35 1 11 143
1958 SI WA 06:00:00 TS -22.80 117.62 0 0 O_____P__OP___ jtwc_sh SH081958 -22.80 117.70 -1 -23.01 117.56 -22.80 117.70 TC -22.76 117.64 1 11 140
1958 SI WA 09:00:00 TS -23.20 118.01 0 0 P_____P__PP___ SH081958 -23.12 117.99 -1 -23.53 118.08 -23.12 117.99 TC -23.12 117.97 1 11 138
1958 SI WA 11:00:00 TS -23.48 118.29 0 0 P_____P__PO___ SH081958 -23.36 118.19 -1 -23.84 118.46 -23.36 118.19 TC -23.40 118.20 1 12 137
1958 SI WA 12:00:00 TS -23.62 118.44 0 0 O_____P__OP___ jtwc_sh SH081958 -23.50 118.30 -1 -23.98 118.66 -23.50 118.30 TC -23.55 118.32 1 13 137
1958 SI WA 15:00:00 TS -24.11 118.95 0 0 P_____P__PP___ SH081958 -24.01 118.68 -1 -24.38 119.28 -24.01 118.68 TC -24.07 118.70 1 14 135
1958 SI WA 16:00:00 TS -24.29 119.16 998 bom 0 0 P_____O__PP___ SH081958 -24.20 118.82 -1 -24.50 119.50 998 -24.20 118.82 TC -24.26 118.83 1 16 130
1958 SI WA 18:00:00 TS -24.63 119.62 0 0 O_____P__OP___ jtwc_sh SH081958 -24.60 119.10 -1 -24.74 119.95 998 -24.60 119.10 TC -24.66 119.10 1 17 125
1958 SI WA 21:00:00 TS -25.08 120.40 0 0 ______P___P___ SH081958 -1 -25.07 120.64 1000 TC -25.28 119.52 1 16 122
1958 SI WA 23:00:00 TS -25.35 120.91 0 0 ______P___O___ SH081958 -1 -25.29 121.12 1001 TC -25.70 119.80 1 19 110
1958 SI WA 1958-01-22 00:00:00 TS -25.40 121.37 0 0 ______P_______ -1 -25.39 121.36 1001 1 19 104
1958 SI WA 01:00:00 NR -25.50 121.60 1002 bom 0 ______O_______ -1 -25.50 121.60 1002 1 14 117